Athens, Pennsylvania
Current Conditions -  °F | °C
As of 7:53 AM on Friday 19 Dec 2014 (Local Time) from KELM Reporting Station
Overcast Overcast  
Wind Chill: -8°   Ceiling: 2000
Heat Index: -2°   Visibility: 10mi
Dew Point: -7°   Wind: 12mph
Humidity: 72%   Direction: 320°NW
Pressure: 30.08"   Gusts: 20mph
Location:  41.96°N, 76.52°W
Report Text: KELM 191253Z 32010G17KT 10SM OVC020 M02/M07 A3008 RMK AO2 SLP197 T10221067
Loading
Personal Weather Stations






























Interactive Weather Map New forecast layout! Learn more

10-Day Weather Forecast

Advertisements
Track Severe Weather on mobile